createdAt,value
2019-02-10T00:00:41.838Z,3.63
2019-02-10T00:03:11.489Z,3.00
2019-02-10T00:06:24.627Z,2.97
2019-02-10T00:08:50.200Z,3.17
2019-02-10T00:11:22.696Z,3.17
2019-02-10T00:13:52.524Z,3.90
2019-02-10T00:16:28.605Z,3.83
2019-02-10T00:19:05.460Z,3.63
2019-02-10T00:21:34.565Z,2.90
2019-02-10T00:26:44.175Z,3.30
2019-02-10T00:29:16.820Z,3.10
2019-02-10T00:31:50.521Z,2.97
2019-02-10T00:34:48.734Z,3.63
2019-02-10T00:40:48.474Z,3.37
2019-02-10T00:43:18.897Z,3.40
2019-02-10T00:46:24.447Z,3.70
2019-02-10T00:49:28.974Z,3.73
2019-02-10T00:56:14.681Z,3.53
2019-02-10T00:58:47.368Z,3.00
2019-02-10T01:01:25.815Z,3.30
2019-02-10T01:12:06.988Z,3.23
2019-02-10T01:14:40.460Z,3.00
2019-02-10T01:17:13.402Z,3.57
2019-02-10T01:20:20.786Z,3.13
2019-02-10T01:22:51.638Z,3.23
2019-02-10T01:25:45.051Z,3.27
2019-02-10T01:28:23.720Z,3.23
2019-02-10T01:31:53.041Z,3.33
2019-02-10T01:34:45.782Z,3.20
2019-02-10T01:40:47.153Z,3.00
2019-02-10T01:43:34.886Z,2.90
2019-02-10T01:49:10.556Z,2.90
2019-02-10T01:58:27.008Z,3.23
2019-02-10T02:01:49.359Z,2.80
2019-02-10T02:04:19.162Z,3.03
2019-02-10T02:07:29.700Z,2.97
2019-02-10T02:10:01.080Z,3.10
2019-02-10T02:26:34.270Z,3.00
2019-02-10T02:29:19.162Z,2.70
2019-02-10T02:32:43.526Z,2.60
2019-02-10T02:35:15.694Z,2.97
2019-02-10T02:38:29.335Z,3.10
2019-02-10T02:53:15.604Z,4.50
2019-02-10T02:56:24.404Z,4.30
2019-02-10T02:59:33.055Z,4.33
2019-02-10T03:12:04.590Z,2.87
2019-02-10T03:14:33.638Z,3.27
2019-02-10T03:17:03.049Z,3.40
2019-02-10T03:19:32.357Z,4.20
2019-02-10T03:22:03.475Z,2.93
2019-02-10T03:24:37.397Z,3.60
2019-02-10T03:34:57.406Z,3.83
2019-02-10T03:37:54.598Z,3.30
2019-02-10T04:01:26.191Z,4.60
2019-02-10T04:04:42.700Z,4.30
2019-02-10T04:08:07.706Z,4.60
2019-02-10T04:11:31.121Z,4.80
2019-02-10T04:14:18.753Z,4.60
2019-02-10T04:17:13.718Z,4.90
2019-02-10T04:26:08.254Z,4.50
2019-02-10T04:28:40.837Z,5.83
2019-02-10T04:31:09.788Z,5.47
2019-02-10T04:33:39.051Z,5.53
2019-02-10T04:36:11.013Z,5.40
2019-02-10T04:52:47.454Z,5.27
2019-02-10T04:55:26.619Z,5.70
2019-02-10T05:25:09.427Z,6.10
2019-02-10T05:27:58.516Z,6.60
2019-02-10T05:31:00.557Z,5.73
2019-02-10T05:50:14.054Z,6.10
2019-02-10T06:10:22.780Z,5.40
2019-02-10T06:13:35.572Z,5.70
2019-02-10T06:17:00.309Z,5.03
2019-02-10T06:20:41.726Z,5.23
2019-02-10T08:21:31.960Z,1.83
2019-02-10T08:36:12.502Z,1.90
2019-02-10T19:35:32.396Z,0.80
2019-02-10T20:10:07.175Z,0.80
2019-02-10T20:12:44.242Z,0.70
2019-02-10T20:15:58.841Z,0.60
2019-02-10T20:19:05.230Z,0.57
2019-02-10T20:22:21.579Z,0.70
2019-02-10T20:25:48.534Z,0.70
2019-02-10T20:29:32.384Z,0.63
2019-02-10T20:32:33.527Z,0.80
2019-02-10T20:35:15.936Z,1.10
2019-02-10T20:38:08.788Z,0.70
2019-02-10T20:40:58.286Z,1.03
2019-02-10T20:44:04.582Z,0.83
2019-02-10T20:47:04.091Z,0.73
2019-02-10T20:49:50.649Z,0.70
2019-02-10T20:52:46.160Z,0.60
2019-02-10T20:59:52.936Z,1.23
2019-02-10T21:03:03.401Z,0.60
2019-02-10T21:05:45.129Z,0.60
2019-02-10T21:08:42.621Z,0.60
2019-02-10T21:12:20.724Z,0.60
2019-02-10T21:15:53.346Z,0.50
2019-02-10T21:25:21.216Z,0.40
2019-02-10T21:31:28.091Z,0.40
2019-02-10T22:13:08.573Z,0.27
2019-02-10T22:15:45.312Z,0.40
2019-02-10T22:19:00.687Z,0.30
2019-02-10T22:22:18.835Z,0.40
2019-02-10T22:28:36.693Z,0.40
2019-02-10T22:31:31.498Z,0.33
2019-02-10T22:34:20.659Z,0.27
2019-02-10T22:37:12.099Z,0.20
2019-02-10T22:43:59.723Z,0.30
2019-02-10T22:46:43.331Z,0.33
2019-02-10T22:49:31.768Z,0.30
2019-02-10T22:59:23.457Z,0.30
2019-02-10T23:02:02.389Z,0.20
2019-02-10T23:04:48.416Z,0.40
2019-02-10T23:07:20.276Z,0.30
2019-02-10T23:10:03.994Z,0.23
2019-02-10T23:16:04.174Z,0.30
2019-02-10T23:18:42.708Z,0.30
2019-02-10T23:24:14.867Z,0.40
2019-02-10T23:27:34.139Z,0.30
2019-02-10T23:30:25.350Z,0.30
2019-02-10T23:33:01.339Z,0.33
2019-02-10T23:36:19.107Z,0.40
2019-02-10T23:38:50.397Z,0.50
2019-02-10T23:41:20.888Z,0.30
2019-02-10T23:44:11.014Z,0.20
2019-02-10T23:46:53.946Z,0.23
2019-02-10T23:49:45.865Z,0.37
2019-02-10T23:55:47.207Z,0.30
